Time;durP1;ratioP1;P1;durP2;ratioP2;P2;SDS_P1;SDS_P2;PMS_P1;PMS_P2;Temp;Humidity;BMP_temperature;BMP_pressure;BME280_temperature;BME280_humidity;BME280_pressure;Samples;Min_cycle;Max_cycle;Signal;HPM_P1;HPM_P2
2022/07/26 00:01:19;;;;;;;13.18;7.45;;;;;;;21.02;63.32;100395.41;5011296;28;20096;-69
2022/07/26 00:03:48;;;;;;;11.65;6.93;;;;;;;21.00;64.04;100383.09;5010942;28;20038;-69
2022/07/26 00:06:15;;;;;;;15.45;8.07;;;;;;;20.92;64.68;100379.66;5011206;28;20069;-69
2022/07/26 00:08:45;;;;;;;15.88;7.95;;;;;;;20.81;64.73;100383.22;5011175;28;20459;-69
2022/07/26 00:11:12;;;;;;;14.95;8.32;;;;;;;20.67;65.32;100395.41;5011271;28;20080;-69
2022/07/26 00:13:39;;;;;;;15.38;8.07;;;;;;;20.53;65.20;100396.69;5012174;28;20398;-69
2022/07/26 00:16:06;;;;;;;13.27;8.25;;;;;;;20.50;67.20;100389.81;5011446;28;20061;-70
2022/07/26 00:18:32;;;;;;;15.00;7.82;;;;;;;20.53;67.33;100388.53;5017358;28;20103;-69
2022/07/26 00:20:59;;;;;;;16.75;8.68;;;;;;;20.55;67.35;100395.38;5003843;28;20572;-69
2022/07/26 00:23:26;;;;;;;15.85;8.23;;;;;;;20.65;67.22;100390.19;5011693;28;20505;-69
2022/07/26 00:25:53;;;;;;;12.52;7.35;;;;;;;20.62;66.86;100390.63;5010535;28;20046;-69
2022/07/26 00:28:19;;;;;;;12.82;6.60;;;;;;;20.60;66.40;100395.50;5011690;28;20065;-69
2022/07/26 00:30:46;;;;;;;13.15;6.82;;;;;;;20.58;65.93;100407.72;5009566;28;20046;-70
2022/07/26 00:33:13;;;;;;;9.93;6.90;;;;;;;20.47;66.30;100397.63;5011036;28;20133;-69
2022/07/26 00:35:40;;;;;;;10.80;7.47;;;;;;;20.55;67.00;100394.53;5010824;28;20050;-69
2022/07/26 00:38:06;;;;;;;10.98;7.43;;;;;;;20.58;67.34;100402.25;5010671;28;20501;-70
2022/07/26 00:40:34;;;;;;;9.98;6.55;;;;;;;20.55;66.97;100410.91;5017237;28;20469;-69
2022/07/26 00:43:01;;;;;;;9.68;6.78;;;;;;;20.56;67.42;100407.09;5007811;28;20061;-69
2022/07/26 00:45:28;;;;;;;11.93;7.13;;;;;;;20.59;67.44;100403.91;5010928;28;20041;-69
2022/07/26 00:47:54;;;;;;;13.82;7.07;;;;;;;20.49;67.38;100407.22;5011470;28;20401;-70
2022/07/26 00:50:21;;;;;;;10.60;6.65;;;;;;;20.57;67.01;100408.78;5012231;28;20069;-70
2022/07/26 00:52:49;;;;;;;13.40;7.03;;;;;;;20.57;67.33;100395.16;5010701;28;20479;-70
2022/07/26 00:55:16;;;;;;;9.88;7.10;;;;;;;20.60;67.29;100402.88;5010623;28;20073;-70
2022/07/26 00:57:43;;;;;;;11.43;8.15;;;;;;;20.52;67.84;100401.28;5010629;28;20533;-70
2022/07/26 01:00:13;;;;;;;11.98;8.52;;;;;;;20.55;67.59;100391.81;5011479;28;20540;-70
2022/07/26 01:02:39;;;;;;;11.98;8.68;;;;;;;20.57;67.50;100401.44;5009389;28;20136;-70
2022/07/26 01:08:47;;;;;;;13.15;8.15;;;;;;;20.65;67.84;100402.97;5006747;28;20084;-70
2022/07/26 01:11:13;;;;;;;14.05;9.57;;;;;;;20.66;67.51;100401.91;5010971;28;20058;-68
2022/07/26 01:13:46;;;;;;;11.65;8.45;;;;;;;20.64;66.66;100409.50;5013647;28;20128;-69
2022/07/26 01:16:12;;;;;;;12.95;9.13;;;;;;;20.64;66.57;100420.41;5014899;28;20136;-69
2022/07/26 01:18:39;;;;;;;11.05;8.25;;;;;;;20.67;66.34;100423.50;5014346;28;20052;-69
2022/07/26 01:21:09;;;;;;;9.88;8.25;;;;;;;20.68;65.42;100432.50;5015438;28;20266;-70
2022/07/26 01:23:40;;;;;;;11.90;7.93;;;;;;;20.68;65.75;100446.94;5009408;28;20046;-69
2022/07/26 01:26:07;;;;;;;13.23;8.40;;;;;;;20.63;66.14;100441.38;5013555;28;20141;-69
2022/07/26 01:28:39;;;;;;;15.05;9.60;;;;;;;20.59;66.76;100440.19;5014697;28;20121;-69
2022/07/26 01:31:06;;;;;;;12.88;8.25;;;;;;;20.62;66.50;100428.78;5013370;28;20096;-69
2022/07/26 01:33:33;;;;;;;9.52;7.65;;;;;;;20.65;66.30;100441.97;5014015;28;20041;-69
2022/07/26 01:36:00;;;;;;;11.48;8.18;;;;;;;20.60;65.85;100446.47;5013674;28;20077;-69
2022/07/26 01:38:27;;;;;;;9.82;8.18;;;;;;;20.48;65.87;100451.03;5014487;28;20065;-69
2022/07/26 01:40:54;;;;;;;11.95;8.45;;;;;;;20.51;66.06;100445.13;5015165;28;20133;-69
2022/07/26 01:43:20;;;;;;;14.07;7.60;;;;;;;20.50;65.41;100440.75;5014812;28;20436;-70
2022/07/26 01:45:47;;;;;;;10.00;7.25;;;;;;;20.44;65.49;100440.59;5013325;28;20046;-69
2022/07/26 01:48:14;;;;;;;15.32;8.07;;;;;;;20.39;65.62;100445.91;5013549;28;20050;-69
2022/07/26 01:50:41;;;;;;;10.77;7.53;;;;;;;20.32;65.98;100453.34;5014071;28;20069;-69
2022/07/26 01:53:07;;;;;;;9.90;7.65;;;;;;;20.29;65.98;100456.53;5014140;28;20070;-69
2022/07/26 01:55:34;;;;;;;12.68;7.95;;;;;;;20.24;65.66;100455.53;5013369;28;20077;-69
2022/07/26 01:58:03;;;;;;;11.07;7.65;;;;;;;20.28;65.45;100456.75;5014428;28;20429;-69
2022/07/26 02:00:31;;;;;;;10.43;7.32;;;;;;;20.16;66.22;100457.53;5012574;28;20076;-69
2022/07/26 02:02:57;;;;;;;14.77;8.35;;;;;;;20.10;66.23;100452.16;5009559;28;20132;-69
2022/07/26 02:05:24;;;;;;;10.07;7.03;;;;;;;20.05;65.91;100460.22;5014286;28;20487;-70
2022/07/26 02:07:50;;;;;;;9.80;7.55;;;;;;;20.10;65.71;100463.06;5013042;28;20121;-69
2022/07/26 02:10:17;;;;;;;9.07;7.40;;;;;;;20.12;65.64;100461.78;5012198;28;20038;-71
2022/07/26 02:12:44;;;;;;;10.23;7.82;;;;;;;20.20;65.67;100468.81;5013778;28;20166;-70
2022/07/26 02:15:12;;;;;;;10.07;8.00;;;;;;;20.18;65.58;100460.03;5013122;28;20164;-69
2022/07/26 02:17:39;;;;;;;11.80;6.85;;;;;;;20.08;65.97;100451.59;5013958;28;20133;-70
2022/07/26 02:20:07;;;;;;;13.15;8.05;;;;;;;20.06;65.84;100459.16;5014071;28;20042;-70
2022/07/26 02:22:34;;;;;;;12.25;7.82;;;;;;;20.14;65.48;100464.25;5012944;28;20049;-69
2022/07/26 02:25:00;;;;;;;11.57;7.22;;;;;;;20.06;65.80;100453.69;5013109;28;20069;-69
2022/07/26 02:27:31;;;;;;;11.68;7.75;;;;;;;20.01;66.22;100454.41;5013386;28;20042;-69
2022/07/26 02:29:58;;;;;;;12.70;7.78;;;;;;;19.99;66.26;100447.50;5012679;28;20104;-70
2022/07/26 02:32:24;;;;;;;9.43;7.35;;;;;;;19.97;65.96;100450.47;5013430;28;20125;-69
2022/07/26 02:34:51;;;;;;;9.32;7.22;;;;;;;19.95;65.94;100460.75;5012157;28;20461;-69
2022/07/26 02:37:17;;;;;;;12.45;6.75;;;;;;;19.87;65.98;100461.91;5013275;28;20084;-69
2022/07/26 02:39:44;;;;;;;8.80;7.13;;;;;;;19.84;66.21;100456.91;5012986;28;20069;-69
2022/07/26 02:42:11;;;;;;;12.40;7.38;;;;;;;19.85;66.07;100457.75;5013445;28;20132;-69
2022/07/26 02:44:37;;;;;;;10.77;7.38;;;;;;;19.80;65.91;100453.00;5013079;28;20583;-69
2022/07/26 02:47:04;;;;;;;8.23;6.57;;;;;;;19.68;66.08;100454.78;5012134;28;20069;-69
2022/07/26 02:49:30;;;;;;;12.77;7.35;;;;;;;19.75;65.73;100443.81;5013257;28;20045;-70
2022/07/26 02:51:57;;;;;;;9.07;7.03;;;;;;;19.80;65.64;100446.72;5012985;28;20052;-70
2022/07/26 02:54:23;;;;;;;11.07;7.53;;;;;;;19.74;65.87;100443.00;5012890;28;20046;-69
2022/07/26 02:56:50;;;;;;;9.30;6.43;;;;;;;19.69;65.92;100446.41;5012299;28;20056;-70
2022/07/26 02:59:16;;;;;;;9.38;7.53;;;;;;;19.71;65.72;100440.72;5012989;28;20455;-70
2022/07/26 03:01:43;;;;;;;10.27;6.72;;;;;;;19.63;65.86;100443.75;5012954;28;20073;-70
2022/07/26 03:04:09;;;;;;;12.60;7.22;;;;;;;19.67;65.57;100448.53;5012897;28;20084;-70
2022/07/26 03:06:37;;;;;;;16.50;7.53;;;;;;;19.62;65.62;100450.22;5011814;28;20045;-71
2022/07/26 03:09:03;;;;;;;10.10;6.60;;;;;;;19.53;65.87;100446.97;5011826;28;20132;-70
2022/07/26 03:11:30;;;;;;;10.30;6.80;;;;;;;19.58;65.46;100449.00;5011293;28;20133;-69
2022/07/26 03:13:56;;;;;;;10.07;7.07;;;;;;;19.47;65.82;100451.41;5013624;28;20562;-69
2022/07/26 03:16:23;;;;;;;10.23;6.60;;;;;;;19.30;66.50;100444.91;5012591;28;20117;-70
2022/07/26 03:18:54;;;;;;;;;;;;;;;19.24;67.12;100457.53;5013114;28;20084;-70
2022/07/26 03:21:21;;;;;;;11.93;7.18;;;;;;;19.19;66.97;100451.91;5012348;28;19928;-70
2022/07/26 03:23:47;;;;;;;15.13;7.75;;;;;;;19.16;66.88;100454.25;5012076;28;20148;-70
2022/07/26 03:26:14;;;;;;;11.82;7.63;;;;;;;19.21;66.74;100460.69;5012378;28;20084;-70
2022/07/26 03:28:41;;;;;;;13.27;7.72;;;;;;;19.21;66.39;100449.00;5011275;28;20129;-70
2022/07/26 03:31:08;;;;;;;9.18;7.10;;;;;;;19.24;66.30;100462.13;5011541;28;20050;-70
2022/07/26 03:33:35;;;;;;;10.48;7.60;;;;;;;19.20;66.19;100458.19;5012910;28;20050;-71
2022/07/26 03:36:02;;;;;;;11.43;7.35;;;;;;;19.21;66.22;100463.41;5011690;28;20123;-70
2022/07/26 03:38:29;;;;;;;12.02;7.30;;;;;;;19.24;65.99;100465.69;5012943;28;20107;-70
2022/07/26 03:40:55;;;;;;;12.27;7.53;;;;;;;19.22;65.96;100470.50;5012367;28;20533;-70
2022/07/26 03:43:22;;;;;;;11.68;6.53;;;;;;;19.18;65.68;100455.72;5012441;28;20129;-70
2022/07/26 03:45:49;;;;;;;18.38;6.93;;;;;;;19.20;65.43;100469.88;5005677;28;20041;-70
2022/07/26 03:48:19;;;;;;;12.32;6.00;;;;;;;19.19;65.02;100467.41;5010951;28;20054;-70
2022/07/26 03:50:46;;;;;;;12.88;6.10;;;;;;;19.18;64.86;100469.31;5012226;28;20121;-70
2022/07/26 03:53:13;;;;;;;14.52;8.07;;;;;;;19.18;64.23;100473.91;5012066;28;20460;-70
2022/07/26 03:58:24;;;;;;;15.98;5.75;;;;;;;19.20;63.95;100483.50;5011337;28;20081;-70
2022/07/26 04:00:51;;;;;;;11.13;5.60;;;;;;;19.18;63.73;100477.47;5012156;28;20141;-70
2022/07/26 04:03:18;;;;;;;7.07;5.38;;;;;;;19.21;63.47;100468.03;5010209;28;20138;-71
2022/07/26 04:05:44;;;;;;;9.23;5.03;;;;;;;19.23;63.23;100484.94;5010735;28;20146;-71
2022/07/26 04:08:15;;;;;;;8.32;5.57;;;;;;;19.18;63.26;100473.91;5011564;28;20045;-70
2022/07/26 04:10:46;;;;;;;8.05;4.88;;;;;;;19.11;63.19;100470.44;5009821;28;20049;-70
2022/07/26 04:13:13;;;;;;;;;;;;;;;19.08;62.99;100471.69;5011812;28;20050;-70
2022/07/26 04:15:39;;;;;;;12.05;5.05;;;;;;;19.16;62.70;100473.28;5011692;28;19937;-70
2022/07/26 04:18:06;;;;;;;13.32;5.53;;;;;;;19.16;62.35;100474.13;5004428;28;20088;-70
2022/07/26 04:20:32;;;;;;;11.82;5.07;;;;;;;19.20;62.01;100480.78;5011672;28;20077;-69
2022/07/26 04:22:59;;;;;;;9.40;4.55;;;;;;;19.16;62.12;100476.00;5010831;28;20513;-70
2022/07/26 04:25:25;;;;;;;10.00;5.10;;;;;;;19.09;62.40;100477.97;5011551;28;20520;-70
2022/07/26 04:28:04;;;;;;;7.25;4.80;;;;;;;19.20;61.64;100480.78;5011194;28;20042;-70
2022/07/26 04:30:30;;;;;;;8.07;4.22;;;;;;;19.21;61.58;100471.59;5011900;28;20116;-69
2022/07/26 04:32:57;;;;;;;12.77;4.90;;;;;;;19.13;61.87;100476.47;5007631;28;20046;-69
2022/07/26 04:35:24;;;;;;;9.68;4.45;;;;;;;19.23;61.43;100466.72;5010717;28;20070;-71
2022/07/26 04:37:51;;;;;;;16.38;5.07;;;;;;;19.22;61.44;100480.56;5011294;28;20064;-71
2022/07/26 04:40:20;;;;;;;11.50;4.63;;;;;;;19.22;61.24;100477.84;5011179;28;20081;-71
2022/07/26 04:42:50;;;;;;;9.05;4.32;;;;;;;19.23;60.95;100472.16;5011501;28;20116;-70
2022/07/26 04:45:17;;;;;;;16.30;5.20;;;;;;;19.34;60.66;100475.22;5010691;28;20494;-70
2022/07/26 04:47:49;;;;;;;9.10;3.92;;;;;;;19.32;60.53;100480.88;5014320;28;20124;-70
2022/07/26 04:50:20;;;;;;;13.52;5.10;;;;;;;19.42;60.46;100477.66;5014651;28;20054;-70
2022/07/26 04:52:48;;;;;;;12.38;4.28;;;;;;;19.37;60.31;100480.22;5015764;28;20398;-70
2022/07/26 04:55:15;;;;;;;13.63;5.93;;;;;;;19.50;59.91;100475.47;5015392;28;20136;-71
2022/07/26 04:57:42;;;;;;;7.38;4.53;;;;;;;19.57;59.58;100490.91;5014993;28;20402;-70
2022/07/26 05:00:11;;;;;;;14.38;5.63;;;;;;;19.52;60.05;100482.56;5015084;28;20088;-70
2022/07/26 05:02:50;;;;;;;9.73;4.68;;;;;;;19.58;59.64;100489.81;5014875;28;20469;-70
2022/07/26 05:05:17;;;;;;;13.98;5.20;;;;;;;19.49;60.11;100492.84;5014633;28;20048;-70
2022/07/26 05:07:45;;;;;;;11.57;4.70;;;;;;;19.43;59.46;100491.03;5014952;28;20076;-70
2022/07/26 05:10:13;;;;;;;10.93;4.82;;;;;;;19.46;59.81;100492.47;5013989;28;20100;-71
2022/07/26 05:12:40;;;;;;;13.75;4.72;;;;;;;19.44;59.53;100489.97;5015095;28;20486;-70
2022/07/26 05:15:08;;;;;;;12.70;5.40;;;;;;;19.47;59.15;100486.78;5014441;28;20092;-70
2022/07/26 05:17:41;;;;;;;11.05;6.00;;;;;;;19.52;59.38;100494.31;5015119;28;20050;-70
2022/07/26 05:20:10;;;;;;;16.85;5.22;;;;;;;19.66;58.79;100497.72;5014214;28;20045;-70
2022/07/26 05:22:37;;;;;;;14.25;4.85;;;;;;;19.63;58.64;100501.72;5014689;28;20076;-71
2022/07/26 05:25:05;;;;;;;10.85;4.63;;;;;;;19.63;58.64;100500.88;5014292;28;20487;-70
2022/07/26 05:27:31;;;;;;;13.60;4.82;;;;;;;19.75;58.26;100509.97;5015175;28;20154;-70
2022/07/26 05:29:58;;;;;;;9.88;5.28;;;;;;;19.74;58.58;100513.75;5015217;28;20133;-70
2022/07/26 05:32:26;;;;;;;11.25;4.43;;;;;;;19.67;58.39;100512.97;5013927;28;20124;-70
2022/07/26 05:34:53;;;;;;;11.38;4.68;;;;;;;19.62;58.66;100516.38;5015024;28;20076;-70
2022/07/26 05:37:20;;;;;;;15.27;4.35;;;;;;;19.63;58.56;100518.03;5014244;28;20445;-70
2022/07/26 05:39:46;;;;;;;9.88;3.80;;;;;;;19.66;58.07;100522.22;5006135;28;20492;-70
2022/07/26 05:42:13;;;;;;;9.38;4.35;;;;;;;19.75;57.64;100517.31;5015136;28;20145;-70
2022/07/26 05:44:39;;;;;;;12.35;3.92;;;;;;;19.86;56.71;100525.56;5014741;28;20045;-70
2022/07/26 05:47:08;;;;;;;12.98;4.60;;;;;;;20.04;57.19;100519.28;5014349;28;20116;-68
2022/07/26 05:49:35;;;;;;;20.85;4.20;;;;;;;20.11;56.29;100538.28;5014289;28;20120;-68
2022/07/26 05:52:07;;;;;;;14.68;3.33;;;;;;;20.13;55.67;100538.88;5013205;28;20052;-68
2022/07/26 05:54:34;;;;;;;10.20;3.63;;;;;;;20.13;55.43;100534.25;5013217;28;20096;-69
2022/07/26 05:57:01;;;;;;;16.33;4.20;;;;;;;20.24;54.88;100524.47;5014804;28;20128;-69
2022/07/26 05:59:27;;;;;;;13.38;3.92;;;;;;;19.98;55.82;100530.25;5013240;28;20482;-69
2022/07/26 06:01:55;;;;;;;17.75;7.03;;;;;;;20.20;54.73;100535.00;5014488;28;20045;-69
2022/07/26 06:04:22;;;;;;;23.23;5.32;;;;;;;20.06;54.90;100527.22;5013083;28;20508;-69
2022/07/26 06:06:53;;;;;;;12.50;4.13;;;;;;;20.18;54.16;100525.41;5014001;28;20398;-69
2022/07/26 06:09:23;;;;;;;7.40;3.42;;;;;;;20.29;53.50;100531.97;5013525;28;20049;-69
2022/07/26 06:11:50;;;;;;;10.82;3.15;;;;;;;20.36;53.08;100528.09;5013523;28;20492;-69
2022/07/26 06:14:18;;;;;;;12.07;3.60;;;;;;;20.28;53.21;100535.75;5013192;28;20124;-69
2022/07/26 06:16:47;;;;;;;10.02;2.75;;;;;;;20.25;53.36;100542.50;5013608;28;20046;-69
2022/07/26 06:19:14;;;;;;;8.95;3.15;;;;;;;20.30;52.98;100539.09;5013425;28;20050;-69
2022/07/26 06:21:41;;;;;;;12.40;3.33;;;;;;;20.44;52.49;100535.97;5013511;28;20052;-69
2022/07/26 06:24:08;;;;;;;16.48;3.22;;;;;;;20.45;52.26;100542.25;5013783;28;20088;-69
2022/07/26 06:26:35;;;;;;;11.65;3.17;;;;;;;20.52;52.06;100542.16;5014181;28;20042;-68
2022/07/26 06:29:02;;;;;;;16.25;3.45;;;;;;;20.46;51.96;100541.22;5014069;28;20120;-68
2022/07/26 06:31:28;;;;;;;11.00;3.47;;;;;;;20.47;51.92;100536.59;5013717;28;20125;-68
2022/07/26 06:33:55;;;;;;;12.98;3.42;;;;;;;20.52;51.70;100534.00;5012450;28;20052;-69
2022/07/26 06:36:22;;;;;;;17.35;3.28;;;;;;;20.44;51.73;100541.44;5014188;28;20046;-68
2022/07/26 06:38:55;;;;;;;14.32;2.97;;;;;;;20.55;51.44;100537.09;5013281;28;20053;-69
2022/07/26 06:41:22;;;;;;;12.75;2.30;;;;;;;20.52;51.35;100536.72;5009105;28;20084;-68
2022/07/26 06:43:48;;;;;;;12.90;3.00;;;;;;;20.60;50.91;100537.25;5013311;28;20045;-69
2022/07/26 06:46:15;;;;;;;12.10;2.97;;;;;;;20.55;50.50;100542.53;5013521;28;20096;-68
2022/07/26 06:48:42;;;;;;;10.68;2.60;;;;;;;20.59;50.84;100540.19;5012768;28;20046;-69
2022/07/26 06:51:18;;;;;;;11.35;2.70;;;;;;;20.71;50.21;100541.06;5013998;28;20053;-68
2022/07/26 06:53:44;;;;;;;13.35;2.88;;;;;;;20.68;50.40;100549.69;5011853;28;20066;-68
2022/07/26 06:56:13;;;;;;;16.48;2.80;;;;;;;20.78;49.93;100544.53;5012975;28;20454;-68
2022/07/26 06:58:41;;;;;;;15.35;2.88;;;;;;;20.76;50.05;100541.19;5013230;28;20046;-68
2022/07/26 07:01:07;;;;;;;11.20;2.70;;;;;;;20.89;49.10;100543.72;5012924;28;20490;-69
2022/07/26 07:03:34;;;;;;;13.20;2.75;;;;;;;21.03;48.89;100540.78;5012275;28;20383;-69
2022/07/26 07:06:00;;;;;;;9.35;2.53;;;;;;;21.17;48.29;100545.00;5013066;28;20157;-69
2022/07/26 07:08:27;;;;;;;14.00;2.92;;;;;;;21.19;48.15;100559.25;5012891;28;20125;-68
2022/07/26 07:10:55;;;;;;;9.15;2.65;;;;;;;21.27;48.00;100555.34;5011961;28;20070;-69
2022/07/26 07:13:22;;;;;;;9.77;2.10;;;;;;;21.27;47.84;100560.78;5013302;28;20046;-70
2022/07/26 07:15:48;;;;;;;13.65;2.50;;;;;;;21.44;47.52;100558.22;5012476;28;20073;-69
2022/07/26 07:18:15;;;;;;;10.43;2.40;;;;;;;21.62;47.19;100569.81;5013304;28;20053;-70
2022/07/26 07:20:41;;;;;;;7.60;1.90;;;;;;;21.28;47.63;100568.72;5015151;28;20132;-69
2022/07/26 07:23:08;;;;;;;6.75;2.15;;;;;;;21.36;47.53;100564.84;5015203;28;20380;-69
2022/07/26 07:25:34;;;;;;;18.02;2.92;;;;;;;21.66;46.57;100570.19;5011804;28;20073;-69
2022/07/26 07:28:01;;;;;;;19.00;3.08;;;;;;;21.96;45.97;100564.63;5012888;28;20121;-69
2022/07/26 07:30:28;;;;;;;9.25;2.35;;;;;;;21.98;45.77;100564.38;5013005;28;20049;-69
2022/07/26 07:32:54;;;;;;;9.07;2.20;;;;;;;21.98;45.54;100572.56;5011691;28;20412;-69
2022/07/26 07:35:22;;;;;;;18.67;2.65;;;;;;;21.68;46.01;100572.69;5012428;28;20084;-69
2022/07/26 07:37:48;;;;;;;10.68;2.50;;;;;;;21.90;45.73;100568.31;5010950;28;20398;-68
2022/07/26 07:40:20;;;;;;;7.03;2.37;;;;;;;22.05;44.65;100562.38;5012151;28;20054;-68
2022/07/26 07:42:46;;;;;;;10.20;2.58;;;;;;;22.08;44.47;100565.44;5011965;28;20453;-69
2022/07/26 07:45:13;;;;;;;13.10;2.35;;;;;;;22.20;43.98;100570.88;5010224;28;20133;-68
2022/07/26 07:47:40;;;;;;;12.75;2.15;;;;;;;22.60;43.08;100571.97;5011502;28;20371;-69
2022/07/26 07:50:07;;;;;;;7.38;2.08;;;;;;;22.31;43.61;100563.72;5012542;28;20410;-69
2022/07/26 07:52:34;;;;;;;9.27;1.80;;;;;;;22.59;42.76;100562.94;5012309;28;20046;-69
2022/07/26 07:55:00;;;;;;;12.27;2.50;;;;;;;22.86;43.51;100565.06;5013045;28;20065;-68
2022/07/26 07:57:47;;;;;;;12.65;2.20;;;;;;;22.63;43.05;100557.81;5012500;28;20069;-69
2022/07/26 08:00:15;;;;;;;9.05;2.15;;;;;;;22.98;42.56;100565.81;5011814;28;20486;-68
2022/07/26 08:02:43;;;;;;;9.98;2.22;;;;;;;22.74;42.35;100562.38;5010522;28;20141;-69
2022/07/26 08:05:10;;;;;;;8.98;2.50;;;;;;;23.27;41.73;100558.44;5012024;28;20074;-69
2022/07/26 08:07:41;;;;;;;7.73;2.30;;;;;;;22.69;42.24;100557.66;5011381;28;20050;-69
2022/07/26 08:10:08;;;;;;;11.00;2.42;;;;;;;22.49;43.05;100557.25;5012125;28;20304;-70
2022/07/26 08:12:34;;;;;;;10.52;2.33;;;;;;;22.66;42.65;100560.06;5012399;28;20046;-70
2022/07/26 08:15:03;;;;;;;14.07;2.45;;;;;;;22.20;43.73;100556.38;5012983;28;20129;-69
2022/07/26 08:17:33;;;;;;;11.65;2.38;;;;;;;22.01;43.92;100558.44;5012043;28;20467;-70
2022/07/26 08:20:03;;;;;;;9.73;1.80;;;;;;;22.41;43.23;100554.91;5012446;28;20049;-70
2022/07/26 08:22:33;;;;;;;10.18;2.25;;;;;;;22.57;42.72;100559.63;5011320;28;20129;-70
2022/07/26 08:24:59;;;;;;;11.65;2.38;;;;;;;22.86;42.13;100548.66;5011327;28;20537;-69
2022/07/26 08:27:26;;;;;;;11.13;1.88;;;;;;;22.61;42.36;100549.84;5011051;28;20448;-69
2022/07/26 08:29:52;;;;;;;7.95;1.70;;;;;;;22.21;42.59;100556.13;5011193;28;20100;-69
2022/07/26 08:32:19;;;;;;;8.65;2.50;;;;;;;21.75;43.02;100546.09;5011559;28;20069;-70
2022/07/26 08:34:46;;;;;;;5.32;1.88;;;;;;;21.88;42.01;100543.16;5011834;28;20072;-69
2022/07/26 08:37:12;;;;;;;6.88;1.67;;;;;;;22.01;42.29;100555.69;5011922;28;20542;-69
2022/07/26 08:39:45;;;;;;;9.60;1.67;;;;;;;22.17;41.82;100565.88;5010619;28;20487;-70
2022/07/26 08:42:14;;;;;;;6.20;1.30;;;;;;;22.33;41.05;100559.69;5011093;28;20133;-70
2022/07/26 08:44:46;;;;;;;3.35;1.65;;;;;;;22.26;41.15;100564.44;5011503;28;20050;-69
2022/07/26 08:47:18;;;;;;;4.38;1.58;;;;;;;22.12;41.28;100574.00;5011996;28;20050;-70
2022/07/26 08:50:05;;;;;;;7.57;1.60;;;;;;;21.96;41.82;100574.72;5011219;28;20496;-71
2022/07/26 08:52:32;;;;;;;7.35;1.80;;;;;;;21.90;41.90;100576.50;5012781;28;20065;-70
2022/07/26 08:54:58;;;;;;;7.78;1.40;;;;;;;22.00;41.37;100571.25;5011437;28;20486;-70
2022/07/26 08:57:25;;;;;;;7.78;1.73;;;;;;;21.88;41.64;100583.28;5011065;28;20137;-71
2022/07/26 09:00:24;;;;;;;9.75;1.33;;;;;;;22.07;41.18;100580.16;5011666;28;20113;-72
2022/07/26 09:02:52;;;;;;;5.65;1.10;;;;;;;22.06;41.18;100575.78;5011495;28;20057;-71
2022/07/26 09:05:24;;;;;;;6.75;1.77;;;;;;;21.90;41.41;100586.59;5011523;28;20053;-71
2022/07/26 09:07:51;;;;;;;9.52;1.55;;;;;;;21.71;42.34;100583.16;5010989;28;20460;-71
2022/07/26 09:10:17;;;;;;;7.00;1.90;;;;;;;21.71;42.53;100578.50;5012180;28;20145;-71
2022/07/26 09:12:44;;;;;;;3.78;1.92;;;;;;;21.67;42.67;100571.88;5011994;28;20085;-70
2022/07/26 09:15:25;;;;;;;4.97;1.48;;;;;;;21.98;41.95;100583.50;5010889;28;20134;-71
2022/07/26 09:17:54;;;;;;;7.75;1.52;;;;;;;21.84;41.97;100581.03;5010854;28;20121;-71
2022/07/26 09:20:26;;;;;;;8.05;1.58;;;;;;;22.06;42.03;100578.50;5010597;28;20081;-71
2022/07/26 09:22:58;;;;;;;6.32;1.73;;;;;;;21.71;42.63;100585.88;5011382;28;20231;-70
2022/07/26 09:25:26;;;;;;;5.75;1.40;;;;;;;21.77;42.29;100585.75;5011260;28;20128;-71
2022/07/26 09:27:53;;;;;;;7.35;1.45;;;;;;;21.71;42.68;100585.88;5010315;28;20513;-71
2022/07/26 09:30:21;;;;;;;5.88;1.50;;;;;;;21.85;42.03;100593.59;5010587;28;20474;-71
2022/07/26 09:33:02;;;;;;;5.40;1.52;;;;;;;21.81;42.37;100597.91;5014487;28;20076;-71
2022/07/26 09:35:31;;;;;;;9.55;1.73;;;;;;;21.58;42.78;100595.94;5015177;28;20564;-71
2022/07/26 09:38:17;;;;;;;7.47;1.80;;;;;;;21.74;42.95;100597.16;5013763;28;20486;-70
2022/07/26 09:40:43;;;;;;;5.07;1.67;;;;;;;21.84;42.46;100593.88;5013844;28;20125;-70
2022/07/26 09:43:17;;;;;;;7.82;1.55;;;;;;;22.25;41.81;100592.00;5014448;28;20064;-70
2022/07/26 09:46:01;;;;;;;5.15;1.60;;;;;;;22.96;40.01;100600.81;5014078;28;20046;-70
2022/07/26 09:48:28;;;;;;;7.80;1.83;;;;;;;23.42;39.59;100599.72;5014362;28;20045;-70
2022/07/26 09:51:12;;;;;;;5.50;1.60;;;;;;;23.40;39.36;100601.91;5014486;28;20108;-70
2022/07/26 09:53:44;;;;;;;7.03;1.75;;;;;;;23.35;39.41;100596.34;5014202;28;20116;-70
2022/07/26 09:56:12;;;;;;;8.02;1.85;;;;;;;24.11;37.65;100595.84;5014735;28;20140;-72
2022/07/26 09:58:39;;;;;;;4.13;1.27;;;;;;;23.15;39.48;100588.59;5014984;28;20073;-71
2022/07/26 10:01:06;;;;;;;6.72;1.50;;;;;;;22.92;39.69;100595.00;5014381;28;20074;-72
2022/07/26 10:03:34;;;;;;;7.55;1.40;;;;;;;23.01;39.75;100584.50;5014886;28;20080;-71
2022/07/26 10:06:02;;;;;;;5.00;1.27;;;;;;;22.86;39.73;100587.78;5014810;28;20543;-71
2022/07/26 10:08:30;;;;;;;9.23;1.63;;;;;;;22.51;40.29;100585.19;5013797;28;20125;-69
2022/07/26 10:11:05;;;;;;;4.55;1.20;;;;;;;22.38;40.17;100585.44;5009205;28;20097;-70
2022/07/26 10:13:31;;;;;;;5.40;1.60;;;;;;;22.57;40.19;100589.69;5013993;28;20073;-71
2022/07/26 10:15:58;;;;;;;8.73;1.48;;;;;;;22.82;39.87;100589.34;5013844;28;20486;-71
2022/07/26 10:18:36;;;;;;;16.02;2.03;;;;;;;22.68;40.22;100590.72;5012558;28;20053;-71
2022/07/26 10:21:17;;;;;;;9.30;1.40;;;;;;;22.56;40.44;100593.50;5013292;28;20042;-71
2022/07/26 10:23:46;;;;;;;5.60;1.73;;;;;;;22.65;40.62;100589.31;5014133;28;20046;-71
2022/07/26 10:26:32;;;;;;;5.63;1.73;;;;;;;22.42;41.00;100589.34;5013225;28;20133;-70
2022/07/26 10:29:19;;;;;;;7.60;1.40;;;;;;;22.31;40.96;100596.50;5012788;28;20078;-70
2022/07/26 10:31:59;;;;;;;5.20;1.15;;;;;;;22.05;40.90;100595.97;5013575;28;20048;-70
2022/07/26 10:34:31;;;;;;;7.25;1.40;;;;;;;22.17;41.00;100595.94;5013605;28;20476;-71
2022/07/26 10:37:04;;;;;;;8.93;1.60;;;;;;;21.97;41.15;100606.41;5012226;28;20076;-71
2022/07/26 10:39:31;;;;;;;5.90;1.40;;;;;;;21.99;41.69;100601.56;5013617;28;20050;-71
2022/07/26 10:42:00;;;;;;;10.15;1.75;;;;;;;21.90;41.58;100601.06;5013125;28;20057;-71
2022/07/26 10:44:40;;;;;;;10.50;1.70;;;;;;;22.02;41.25;100607.38;5013129;28;20125;-71
2022/07/26 10:47:06;;;;;;;9.80;1.45;;;;;;;22.10;41.59;100600.72;5013788;28;20034;-71
2022/07/26 10:49:54;;;;;;;8.82;1.35;;;;;;;22.40;40.76;100597.81;5013214;28;20077;-71
2022/07/26 10:52:25;;;;;;;5.32;1.50;;;;;;;22.58;40.58;100601.47;5011708;28;20507;-72
2022/07/26 10:55:02;;;;;;;7.40;1.50;;;;;;;22.61;40.39;100601.81;5013215;28;20427;-70
2022/07/26 10:57:30;;;;;;;10.63;2.10;;;;;;;22.68;40.09;100605.22;5013653;28;20049;-71
2022/07/26 10:59:59;;;;;;;7.20;1.70;;;;;;;22.37;40.67;100594.72;5013296;28;20486;-70
2022/07/26 11:02:31;;;;;;;6.88;1.60;;;;;;;22.55;40.25;100600.03;5011864;28;20140;-71
2022/07/26 11:05:02;;;;;;;7.18;1.77;;;;;;;22.02;41.08;100617.47;5012203;28;20058;-71
2022/07/26 11:07:30;;;;;;;5.80;1.90;;;;;;;22.17;41.10;100606.88;5012997;28;20125;-71
2022/07/26 11:09:58;;;;;;;8.52;1.50;;;;;;;22.09;40.76;100612.72;5008696;28;20479;-72
2022/07/26 11:12:25;;;;;;;6.65;1.30;;;;;;;22.38;40.43;100605.41;5012947;28;20136;-71
2022/07/26 11:14:53;;;;;;;13.00;1.90;;;;;;;22.24;40.55;100598.53;5011787;28;20053;-71
2022/07/26 11:17:27;;;;;;;11.40;1.50;;;;;;;22.58;39.83;100596.00;5012401;28;20045;-71
2022/07/26 11:19:54;;;;;;;7.82;1.58;;;;;;;22.60;40.04;100605.59;5012827;28;20536;-71
2022/07/26 11:22:31;;;;;;;11.27;1.70;;;;;;;22.79;40.01;100596.13;5012347;28;20480;-71
2022/07/26 11:24:57;;;;;;;6.80;1.98;;;;;;;22.99;39.64;100605.81;5012969;28;20452;-71
2022/07/26 11:27:24;;;;;;;8.00;1.48;;;;;;;23.15;39.17;100594.06;5012667;28;20136;-71
2022/07/26 11:29:50;;;;;;;7.60;1.50;;;;;;;23.89;37.92;100593.09;5011717;28;20473;-70
2022/07/26 11:32:21;;;;;;;8.93;1.65;;;;;;;23.26;39.36;100590.47;5012495;28;20052;-70
2022/07/26 11:34:59;;;;;;;6.05;1.60;;;;;;;23.16;39.54;100594.94;5012647;28;20046;-71